sensor_id;sensor_type;location;lat;lon;timestamp;temperature;humidity
21171;DHT22;10743;52.160;20.910;2024-03-08T00:00:10;17.70;31.50
21171;DHT22;10743;52.160;20.910;2024-03-08T00:02:44;17.60;31.50
21171;DHT22;10743;52.160;20.910;2024-03-08T00:05:15;17.60;31.60
21171;DHT22;10743;52.160;20.910;2024-03-08T00:07:42;17.60;31.60
21171;DHT22;10743;52.160;20.910;2024-03-08T00:10:12;17.60;31.60
21171;DHT22;10743;52.160;20.910;2024-03-08T00:12:43;17.60;31.70
21171;DHT22;10743;52.160;20.910;2024-03-08T00:15:13;17.60;31.70
21171;DHT22;10743;52.160;20.910;2024-03-08T00:17:44;17.60;31.70
21171;DHT22;10743;52.160;20.910;2024-03-08T00:20:13;17.60;31.70
21171;DHT22;10743;52.160;20.910;2024-03-08T00:22:41;17.50;31.60
21171;DHT22;10743;52.160;20.910;2024-03-08T00:25:08;17.50;31.70
21171;DHT22;10743;52.160;20.910;2024-03-08T00:27:37;17.50;31.70
21171;DHT22;10743;52.160;20.910;2024-03-08T00:30:05;17.50;31.70
21171;DHT22;10743;52.160;20.910;2024-03-08T00:32:33;17.50;31.60
21171;DHT22;10743;52.160;20.910;2024-03-08T00:35:00;17.50;31.70
21171;DHT22;10743;52.160;20.910;2024-03-08T00:37:28;17.50;31.80
21171;DHT22;10743;52.160;20.910;2024-03-08T00:39:55;17.50;31.90
21171;DHT22;10743;52.160;20.910;2024-03-08T00:42:22;17.50;31.80
21171;DHT22;10743;52.160;20.910;2024-03-08T00:44:49;17.40;31.70
21171;DHT22;10743;52.160;20.910;2024-03-08T00:47:18;17.40;31.80
21171;DHT22;10743;52.160;20.910;2024-03-08T00:49:46;17.40;31.80
21171;DHT22;10743;52.160;20.910;2024-03-08T00:52:14;17.40;31.80
21171;DHT22;10743;52.160;20.910;2024-03-08T00:54:41;17.40;31.80
21171;DHT22;10743;52.160;20.910;2024-03-08T00:57:11;17.40;31.80
21171;DHT22;10743;52.160;20.910;2024-03-08T00:59:38;17.30;31.80
21171;DHT22;10743;52.160;20.910;2024-03-08T01:02:05;17.30;31.80
21171;DHT22;10743;52.160;20.910;2024-03-08T01:04:32;17.30;31.90
21171;DHT22;10743;52.160;20.910;2024-03-08T01:07:00;17.30;31.80
21171;DHT22;10743;52.160;20.910;2024-03-08T01:09:27;17.30;31.80
21171;DHT22;10743;52.160;20.910;2024-03-08T01:11:55;17.30;31.70
21171;DHT22;10743;52.160;20.910;2024-03-08T01:14:23;17.30;31.80
21171;DHT22;10743;52.160;20.910;2024-03-08T01:16:52;17.20;31.80
21171;DHT22;10743;52.160;20.910;2024-03-08T01:19:19;17.20;31.80
21171;DHT22;10743;52.160;20.910;2024-03-08T01:21:46;17.20;31.80
21171;DHT22;10743;52.160;20.910;2024-03-08T01:24:13;17.20;31.80
21171;DHT22;10743;52.160;20.910;2024-03-08T01:26:40;17.10;31.80
21171;DHT22;10743;52.160;20.910;2024-03-08T01:29:07;17.10;31.90
21171;DHT22;10743;52.160;20.910;2024-03-08T01:31:35;17.10;31.90
21171;DHT22;10743;52.160;20.910;2024-03-08T01:34:03;17.10;32.00
21171;DHT22;10743;52.160;20.910;2024-03-08T01:36:30;17.00;31.90
21171;DHT22;10743;52.160;20.910;2024-03-08T01:38:57;17.10;31.90
21171;DHT22;10743;52.160;20.910;2024-03-08T01:41:24;17.00;31.80
21171;DHT22;10743;52.160;20.910;2024-03-08T01:43:51;17.00;31.90
21171;DHT22;10743;52.160;20.910;2024-03-08T01:46:21;17.00;31.90
21171;DHT22;10743;52.160;20.910;2024-03-08T01:48:51;17.00;32.00
21171;DHT22;10743;52.160;20.910;2024-03-08T01:51:20;17.00;32.00
21171;DHT22;10743;52.160;20.910;2024-03-08T01:53:48;16.90;32.00
21171;DHT22;10743;52.160;20.910;2024-03-08T01:56:16;16.90;32.10
21171;DHT22;10743;52.160;20.910;2024-03-08T01:58:44;16.90;32.10
21171;DHT22;10743;52.160;20.910;2024-03-08T02:01:13;16.90;32.10
21171;DHT22;10743;52.160;20.910;2024-03-08T02:03:44;16.90;32.00
21171;DHT22;10743;52.160;20.910;2024-03-08T02:06:12;16.90;32.00
21171;DHT22;10743;52.160;20.910;2024-03-08T02:08:45;16.90;32.00
21171;DHT22;10743;52.160;20.910;2024-03-08T02:11:13;16.80;31.90
21171;DHT22;10743;52.160;20.910;2024-03-08T02:13:41;16.90;32.00
21171;DHT22;10743;52.160;20.910;2024-03-08T02:16:08;16.90;32.10
21171;DHT22;10743;52.160;20.910;2024-03-08T02:18:36;16.80;32.10
21171;DHT22;10743;52.160;20.910;2024-03-08T02:21:05;16.80;32.00
21171;DHT22;10743;52.160;20.910;2024-03-08T02:23:33;16.80;32.00
21171;DHT22;10743;52.160;20.910;2024-03-08T02:26:01;16.80;32.00
21171;DHT22;10743;52.160;20.910;2024-03-08T02:28:28;16.80;32.00
21171;DHT22;10743;52.160;20.910;2024-03-08T02:30:56;16.80;32.00
21171;DHT22;10743;52.160;20.910;2024-03-08T02:33:27;16.80;32.00
21171;DHT22;10743;52.160;20.910;2024-03-08T02:35:55;16.80;31.90
21171;DHT22;10743;52.160;20.910;2024-03-08T02:38:24;16.80;31.90
21171;DHT22;10743;52.160;20.910;2024-03-08T02:40:53;16.80;31.90
21171;DHT22;10743;52.160;20.910;2024-03-08T02:43:22;16.80;31.90
21171;DHT22;10743;52.160;20.910;2024-03-08T02:45:49;16.70;31.90
21171;DHT22;10743;52.160;20.910;2024-03-08T02:48:16;16.80;48.30
21171;DHT22;10743;52.160;20.910;2024-03-08T03:08:03;15.00;53.20
21171;DHT22;10743;52.160;20.910;2024-03-08T03:10:36;14.90;40.20
21171;DHT22;10743;52.160;20.910;2024-03-08T03:13:04;14.80;34.30
21171;DHT22;10743;52.160;20.910;2024-03-08T03:15:31;14.80;34.60
21171;DHT22;10743;52.160;20.910;2024-03-08T03:18:00;15.00;34.70
21171;DHT22;10743;52.160;20.910;2024-03-08T03:20:28;15.20;34.50
21171;DHT22;10743;52.160;20.910;2024-03-08T03:23:08;15.20;34.20
21171;DHT22;10743;52.160;20.910;2024-03-08T03:25:36;15.30;34.10
21171;DHT22;10743;52.160;20.910;2024-03-08T03:28:05;15.40;34.10
21171;DHT22;10743;52.160;20.910;2024-03-08T03:30:34;15.50;34.00
21171;DHT22;10743;52.160;20.910;2024-03-08T03:33:02;15.60;34.00
21171;DHT22;10743;52.160;20.910;2024-03-08T03:35:37;15.60;33.80
21171;DHT22;10743;52.160;20.910;2024-03-08T03:38:05;15.70;33.70
21171;DHT22;10743;52.160;20.910;2024-03-08T03:40:38;15.70;33.50
21171;DHT22;10743;52.160;20.910;2024-03-08T03:43:07;15.70;33.50
21171;DHT22;10743;52.160;20.910;2024-03-08T03:45:34;15.70;33.40
21171;DHT22;10743;52.160;20.910;2024-03-08T03:48:07;15.80;33.30
21171;DHT22;10743;52.160;20.910;2024-03-08T03:50:38;15.80;33.30
21171;DHT22;10743;52.160;20.910;2024-03-08T03:53:07;15.90;33.30
21171;DHT22;10743;52.160;20.910;2024-03-08T03:55:37;15.90;33.20
21171;DHT22;10743;52.160;20.910;2024-03-08T03:58:07;16.00;33.10
21171;DHT22;10743;52.160;20.910;2024-03-08T04:00:34;16.00;33.00
21171;DHT22;10743;52.160;20.910;2024-03-08T04:03:01;16.10;33.00
21171;DHT22;10743;52.160;20.910;2024-03-08T04:05:28;16.00;32.80
21171;DHT22;10743;52.160;20.910;2024-03-08T04:07:55;16.10;32.80
21171;DHT22;10743;52.160;20.910;2024-03-08T04:10:23;16.00;32.60
21171;DHT22;10743;52.160;20.910;2024-03-08T04:12:50;16.10;32.60
21171;DHT22;10743;52.160;20.910;2024-03-08T04:15:17;16.00;32.60
21171;DHT22;10743;52.160;20.910;2024-03-08T04:17:44;15.90;32.60
21171;DHT22;10743;52.160;20.910;2024-03-08T04:20:13;15.90;32.70
21171;DHT22;10743;52.160;20.910;2024-03-08T04:22:41;15.90;32.80
21171;DHT22;10743;52.160;20.910;2024-03-08T04:25:11;15.80;32.80
21171;DHT22;10743;52.160;20.910;2024-03-08T04:27:38;15.80;32.80
21171;DHT22;10743;52.160;20.910;2024-03-08T04:30:05;15.80;32.90
21171;DHT22;10743;52.160;20.910;2024-03-08T04:32:36;15.80;32.90
21171;DHT22;10743;52.160;20.910;2024-03-08T04:35:03;15.80;32.80
21171;DHT22;10743;52.160;20.910;2024-03-08T04:37:30;15.80;32.80
21171;DHT22;10743;52.160;20.910;2024-03-08T04:39:58;15.70;32.80
21171;DHT22;10743;52.160;20.910;2024-03-08T04:42:27;15.70;32.80
21171;DHT22;10743;52.160;20.910;2024-03-08T04:44:56;15.70;32.80
21171;DHT22;10743;52.160;20.910;2024-03-08T04:47:24;15.80;32.80
21171;DHT22;10743;52.160;20.910;2024-03-08T04:49:51;15.80;32.70
21171;DHT22;10743;52.160;20.910;2024-03-08T04:52:18;15.80;32.70
21171;DHT22;10743;52.160;20.910;2024-03-08T04:54:45;15.80;32.70
21171;DHT22;10743;52.160;20.910;2024-03-08T04:57:12;15.80;32.70
21171;DHT22;10743;52.160;20.910;2024-03-08T04:59:39;15.80;32.70
21171;DHT22;10743;52.160;20.910;2024-03-08T05:02:07;15.80;32.70
21171;DHT22;10743;52.160;20.910;2024-03-08T05:04:34;15.80;32.70
21171;DHT22;10743;52.160;20.910;2024-03-08T05:07:02;15.80;32.70
21171;DHT22;10743;52.160;20.910;2024-03-08T05:09:29;15.70;32.80
21171;DHT22;10743;52.160;20.910;2024-03-08T05:11:58;15.70;32.80
21171;DHT22;10743;52.160;20.910;2024-03-08T05:14:26;15.80;32.80
21171;DHT22;10743;52.160;20.910;2024-03-08T05:16:53;15.80;32.80
21171;DHT22;10743;52.160;20.910;2024-03-08T05:19:20;15.80;32.80
21171;DHT22;10743;52.160;20.910;2024-03-08T05:21:49;15.80;32.80
21171;DHT22;10743;52.160;20.910;2024-03-08T05:24:17;15.80;32.80
21171;DHT22;10743;52.160;20.910;2024-03-08T05:26:46;15.70;32.80
21171;DHT22;10743;52.160;20.910;2024-03-08T05:29:13;15.80;32.80
21171;DHT22;10743;52.160;20.910;2024-03-08T05:31:48;15.70;32.70
21171;DHT22;10743;52.160;20.910;2024-03-08T05:34:22;15.70;32.80
21171;DHT22;10743;52.160;20.910;2024-03-08T05:36:49;15.70;33.00
21171;DHT22;10743;52.160;20.910;2024-03-08T05:39:18;15.70;33.00
21171;DHT22;10743;52.160;20.910;2024-03-08T05:41:46;15.70;33.10
21171;DHT22;10743;52.160;20.910;2024-03-08T05:44:13;15.70;33.10
21171;DHT22;10743;52.160;20.910;2024-03-08T05:46:40;15.80;33.30
21171;DHT22;10743;52.160;20.910;2024-03-08T05:49:07;15.70;33.30
21171;DHT22;10743;52.160;20.910;2024-03-08T05:51:38;15.80;33.30
21171;DHT22;10743;52.160;20.910;2024-03-08T05:54:10;15.80;33.30
21171;DHT22;10743;52.160;20.910;2024-03-08T05:56:43;15.80;33.30
21171;DHT22;10743;52.160;20.910;2024-03-08T05:59:12;15.80;33.30
21171;DHT22;10743;52.160;20.910;2024-03-08T06:01:39;15.80;33.40
21171;DHT22;10743;52.160;20.910;2024-03-08T06:04:09;15.80;33.50
21171;DHT22;10743;52.160;20.910;2024-03-08T06:06:38;15.90;33.60
21171;DHT22;10743;52.160;20.910;2024-03-08T06:09:05;15.90;33.50
21171;DHT22;10743;52.160;20.910;2024-03-08T06:11:41;16.00;33.60
21171;DHT22;10743;52.160;20.910;2024-03-08T06:14:09;16.00;33.60
21171;DHT22;10743;52.160;20.910;2024-03-08T06:16:36;16.10;33.80
21171;DHT22;10743;52.160;20.910;2024-03-08T06:19:04;16.10;33.90
21171;DHT22;10743;52.160;20.910;2024-03-08T06:21:32;16.20;34.00
21171;DHT22;10743;52.160;20.910;2024-03-08T06:23:59;16.20;34.10
21171;DHT22;10743;52.160;20.910;2024-03-08T06:26:27;16.20;34.20
21171;DHT22;10743;52.160;20.910;2024-03-08T06:28:58;16.30;34.30
21171;DHT22;10743;52.160;20.910;2024-03-08T06:31:25;16.40;34.40
21171;DHT22;10743;52.160;20.910;2024-03-08T06:33:53;16.40;34.40
21171;DHT22;10743;52.160;20.910;2024-03-08T06:36:22;16.40;34.40
21171;DHT22;10743;52.160;20.910;2024-03-08T06:38:50;16.40;34.50
21171;DHT22;10743;52.160;20.910;2024-03-08T06:41:17;16.50;34.60
21171;DHT22;10743;52.160;20.910;2024-03-08T06:43:45;16.50;34.60
21171;DHT22;10743;52.160;20.910;2024-03-08T06:46:15;16.60;34.70
21171;DHT22;10743;52.160;20.910;2024-03-08T06:48:42;16.60;34.60
21171;DHT22;10743;52.160;20.910;2024-03-08T06:51:09;16.70;34.70
21171;DHT22;10743;52.160;20.910;2024-03-08T06:53:38;16.80;34.70
21171;DHT22;10743;52.160;20.910;2024-03-08T06:56:07;16.80;34.70
21171;DHT22;10743;52.160;20.910;2024-03-08T06:58:35;16.90;34.80
21171;DHT22;10743;52.160;20.910;2024-03-08T07:01:02;17.00;34.80
21171;DHT22;10743;52.160;20.910;2024-03-08T07:03:31;17.10;34.80
21171;DHT22;10743;52.160;20.910;2024-03-08T07:05:59;17.10;34.90
21171;DHT22;10743;52.160;20.910;2024-03-08T07:08:28;17.10;35.00
21171;DHT22;10743;52.160;20.910;2024-03-08T07:10:55;17.20;35.00
21171;DHT22;10743;52.160;20.910;2024-03-08T07:13:25;17.30;35.00
21171;DHT22;10743;52.160;20.910;2024-03-08T07:15:55;17.30;35.00
21171;DHT22;10743;52.160;20.910;2024-03-08T07:18:22;17.40;35.00
21171;DHT22;10743;52.160;20.910;2024-03-08T07:20:50;17.50;34.80
21171;DHT22;10743;52.160;20.910;2024-03-08T07:23:17;17.50;34.70
21171;DHT22;10743;52.160;20.910;2024-03-08T07:26:02;17.50;34.60
21171;DHT22;10743;52.160;20.910;2024-03-08T07:28:29;17.70;34.70
21171;DHT22;10743;52.160;20.910;2024-03-08T07:30:58;17.70;34.50
21171;DHT22;10743;52.160;20.910;2024-03-08T07:33:39;17.70;34.50
21171;DHT22;10743;52.160;20.910;2024-03-08T07:36:07;17.80;34.60
21171;DHT22;10743;52.160;20.910;2024-03-08T07:38:35;17.90;34.50
21171;DHT22;10743;52.160;20.910;2024-03-08T07:41:02;17.90;34.40
21171;DHT22;10743;52.160;20.910;2024-03-08T07:43:31;18.00;34.40
21171;DHT22;10743;52.160;20.910;2024-03-08T07:45:59;18.00;35.10
21171;DHT22;10743;52.160;20.910;2024-03-08T07:48:26;18.10;34.30
21171;DHT22;10743;52.160;20.910;2024-03-08T07:50:54;18.10;34.20
21171;DHT22;10743;52.160;20.910;2024-03-08T07:53:21;18.20;34.30
21171;DHT22;10743;52.160;20.910;2024-03-08T07:55:48;18.20;34.30
21171;DHT22;10743;52.160;20.910;2024-03-08T07:58:14;18.30;34.20
21171;DHT22;10743;52.160;20.910;2024-03-08T08:00:41;18.30;34.00
21171;DHT22;10743;52.160;20.910;2024-03-08T08:03:09;18.40;34.00
21171;DHT22;10743;52.160;20.910;2024-03-08T08:05:36;18.40;33.90
21171;DHT22;10743;52.160;20.910;2024-03-08T08:08:07;18.50;33.90
21171;DHT22;10743;52.160;20.910;2024-03-08T08:10:37;18.50;33.80
21171;DHT22;10743;52.160;20.910;2024-03-08T08:13:04;18.50;33.70
21171;DHT22;10743;52.160;20.910;2024-03-08T08:15:32;18.60;33.80
21171;DHT22;10743;52.160;20.910;2024-03-08T08:18:01;18.60;33.80
21171;DHT22;10743;52.160;20.910;2024-03-08T08:20:32;18.60;33.80
21171;DHT22;10743;52.160;20.910;2024-03-08T08:22:59;18.70;33.80
21171;DHT22;10743;52.160;20.910;2024-03-08T08:25:26;18.70;33.70
21171;DHT22;10743;52.160;20.910;2024-03-08T08:27:53;18.80;33.60
21171;DHT22;10743;52.160;20.910;2024-03-08T08:30:20;18.90;33.50
21171;DHT22;10743;52.160;20.910;2024-03-08T08:32:47;19.00;33.30
21171;DHT22;10743;52.160;20.910;2024-03-08T08:35:15;19.00;33.10
21171;DHT22;10743;52.160;20.910;2024-03-08T08:37:43;19.10;32.90
21171;DHT22;10743;52.160;20.910;2024-03-08T08:40:11;19.20;32.90
21171;DHT22;10743;52.160;20.910;2024-03-08T08:42:42;19.30;32.60
21171;DHT22;10743;52.160;20.910;2024-03-08T08:45:09;19.40;32.50
21171;DHT22;10743;52.160;20.910;2024-03-08T08:47:43;19.40;32.50
21171;DHT22;10743;52.160;20.910;2024-03-08T08:50:12;19.50;32.40
21171;DHT22;10743;52.160;20.910;2024-03-08T08:52:40;19.60;32.00
21171;DHT22;10743;52.160;20.910;2024-03-08T08:55:07;19.80;31.80
21171;DHT22;10743;52.160;20.910;2024-03-08T08:57:35;19.90;31.70
21171;DHT22;10743;52.160;20.910;2024-03-08T09:00:03;20.00;31.60
21171;DHT22;10743;52.160;20.910;2024-03-08T09:02:42;20.10;31.10
21171;DHT22;10743;52.160;20.910;2024-03-08T09:05:09;20.20;30.80
21171;DHT22;10743;52.160;20.910;2024-03-08T09:07:36;20.30;30.60
21171;DHT22;10743;52.160;20.910;2024-03-08T09:10:04;20.40;30.70
21171;DHT22;10743;52.160;20.910;2024-03-08T09:12:34;20.60;30.80
21171;DHT22;10743;52.160;20.910;2024-03-08T09:15:01;20.70;30.30
21171;DHT22;10743;52.160;20.910;2024-03-08T09:17:28;20.70;30.30
21171;DHT22;10743;52.160;20.910;2024-03-08T09:19:56;20.80;30.10
21171;DHT22;10743;52.160;20.910;2024-03-08T09:22:24;21.00;30.00
21171;DHT22;10743;52.160;20.910;2024-03-08T09:24:51;21.20;29.80
21171;DHT22;10743;52.160;20.910;2024-03-08T09:27:18;21.30;29.30
21171;DHT22;10743;52.160;20.910;2024-03-08T09:29:47;21.50;28.80
21171;DHT22;10743;52.160;20.910;2024-03-08T09:32:14;21.70;28.50
21171;DHT22;10743;52.160;20.910;2024-03-08T09:34:41;21.90;28.50
21171;DHT22;10743;52.160;20.910;2024-03-08T09:37:08;21.90;28.30
21171;DHT22;10743;52.160;20.910;2024-03-08T09:39:35;22.10;27.70
21171;DHT22;10743;52.160;20.910;2024-03-08T09:42:03;22.20;27.90
21171;DHT22;10743;52.160;20.910;2024-03-08T09:44:30;22.30;27.70
21171;DHT22;10743;52.160;20.910;2024-03-08T09:46:58;22.40;27.50
21171;DHT22;10743;52.160;20.910;2024-03-08T09:49:26;22.40;27.50
21171;DHT22;10743;52.160;20.910;2024-03-08T09:51:53;22.40;27.40
21171;DHT22;10743;52.160;20.910;2024-03-08T09:54:22;22.40;27.70
21171;DHT22;10743;52.160;20.910;2024-03-08T09:56:51;22.60;27.90
21171;DHT22;10743;52.160;20.910;2024-03-08T09:59:19;22.70;27.70
21171;DHT22;10743;52.160;20.910;2024-03-08T10:02:12;22.70;27.60
21171;DHT22;10743;52.160;20.910;2024-03-08T10:04:42;22.80;27.20
21171;DHT22;10743;52.160;20.910;2024-03-08T10:07:09;22.90;27.10
21171;DHT22;10743;52.160;20.910;2024-03-08T10:09:36;22.90;27.30
21171;DHT22;10743;52.160;20.910;2024-03-08T10:12:04;23.10;26.60
21171;DHT22;10743;52.160;20.910;2024-03-08T10:14:32;23.20;26.50
21171;DHT22;10743;52.160;20.910;2024-03-08T10:16:59;23.20;26.20
21171;DHT22;10743;52.160;20.910;2024-03-08T10:19:27;23.40;26.00
21171;DHT22;10743;52.160;20.910;2024-03-08T10:21:57;23.50;26.10
21171;DHT22;10743;52.160;20.910;2024-03-08T10:24:25;23.50;26.30
21171;DHT22;10743;52.160;20.910;2024-03-08T10:26:53;23.50;26.40
21171;DHT22;10743;52.160;20.910;2024-03-08T10:29:25;23.60;26.10
21171;DHT22;10743;52.160;20.910;2024-03-08T10:31:52;23.80;25.10
21171;DHT22;10743;52.160;20.910;2024-03-08T10:34:19;23.80;25.60
21171;DHT22;10743;52.160;20.910;2024-03-08T10:36:48;23.70;25.70
21171;DHT22;10743;52.160;20.910;2024-03-08T10:39:22;23.70;25.60
21171;DHT22;10743;52.160;20.910;2024-03-08T10:41:57;23.70;25.50
21171;DHT22;10743;52.160;20.910;2024-03-08T10:47:18;23.80;25.40
21171;DHT22;10743;52.160;20.910;2024-03-08T10:50:08;23.90;24.90
21171;DHT22;10743;52.160;20.910;2024-03-08T10:52:50;24.00;25.00
21171;DHT22;10743;52.160;20.910;2024-03-08T10:55:19;24.00;25.60
21171;DHT22;10743;52.160;20.910;2024-03-08T10:57:47;24.20;26.00
21171;DHT22;10743;52.160;20.910;2024-03-08T11:00:15;24.40;24.60
21171;DHT22;10743;52.160;20.910;2024-03-08T11:02:45;24.40;24.80
21171;DHT22;10743;52.160;20.910;2024-03-08T11:08:18;24.30;24.90
21171;DHT22;10743;52.160;20.910;2024-03-08T11:10:49;24.40;24.90
21171;DHT22;10743;52.160;20.910;2024-03-08T11:13:39;24.60;24.20
21171;DHT22;10743;52.160;20.910;2024-03-08T11:21:32;24.70;24.30
21171;DHT22;10743;52.160;20.910;2024-03-08T11:24:13;24.80;24.40
21171;DHT22;10743;52.160;20.910;2024-03-08T11:26:40;24.90;23.70
21171;DHT22;10743;52.160;20.910;2024-03-08T11:32:16;25.10;23.30
21171;DHT22;10743;52.160;20.910;2024-03-08T11:34:50;25.10;23.80
21171;DHT22;10743;52.160;20.910;2024-03-08T11:37:18;25.10;23.80
21171;DHT22;10743;52.160;20.910;2024-03-08T11:39:51;25.00;23.90
21171;DHT22;10743;52.160;20.910;2024-03-08T11:42:19;25.00;24.00
21171;DHT22;10743;52.160;20.910;2024-03-08T11:44:47;25.10;23.40
21171;DHT22;10743;52.160;20.910;2024-03-08T11:47:15;25.20;23.40
21171;DHT22;10743;52.160;20.910;2024-03-08T11:49:44;25.20;23.60
21171;DHT22;10743;52.160;20.910;2024-03-08T11:52:15;25.10;23.50
21171;DHT22;10743;52.160;20.910;2024-03-08T11:54:56;25.20;23.70
21171;DHT22;10743;52.160;20.910;2024-03-08T11:57:25;25.10;23.60
21171;DHT22;10743;52.160;20.910;2024-03-08T11:59:53;25.10;23.50
21171;DHT22;10743;52.160;20.910;2024-03-08T12:02:25;25.10;23.60
21171;DHT22;10743;52.160;20.910;2024-03-08T12:04:59;25.00;23.70
21171;DHT22;10743;52.160;20.910;2024-03-08T12:07:28;25.00;23.50
21171;DHT22;10743;52.160;20.910;2024-03-08T12:10:20;25.00;23.80
21171;DHT22;10743;52.160;20.910;2024-03-08T12:12:50;25.10;23.50
21171;DHT22;10743;52.160;20.910;2024-03-08T12:15:19;25.20;23.60
21171;DHT22;10743;52.160;20.910;2024-03-08T12:17:52;25.20;23.30
21171;DHT22;10743;52.160;20.910;2024-03-08T12:20:26;25.40;22.90
21171;DHT22;10743;52.160;20.910;2024-03-08T12:22:54;25.50;22.50
21171;DHT22;10743;52.160;20.910;2024-03-08T12:25:33;25.50;22.50
21171;DHT22;10743;52.160;20.910;2024-03-08T12:28:11;25.50;23.00
21171;DHT22;10743;52.160;20.910;2024-03-08T12:30:51;25.40;23.10
21171;DHT22;10743;52.160;20.910;2024-03-08T12:33:19;25.50;23.20
21171;DHT22;10743;52.160;20.910;2024-03-08T12:35:54;25.50;23.30
21171;DHT22;10743;52.160;20.910;2024-03-08T12:38:23;25.50;23.10
21171;DHT22;10743;52.160;20.910;2024-03-08T12:40:58;25.50;23.10
21171;DHT22;10743;52.160;20.910;2024-03-08T12:43:26;25.40;22.90
21171;DHT22;10743;52.160;20.910;2024-03-08T12:45:57;25.40;23.10
21171;DHT22;10743;52.160;20.910;2024-03-08T12:48:24;25.40;23.20
21171;DHT22;10743;52.160;20.910;2024-03-08T12:50:51;25.40;22.90
21171;DHT22;10743;52.160;20.910;2024-03-08T12:53:20;25.50;22.90
21171;DHT22;10743;52.160;20.910;2024-03-08T12:55:49;25.50;22.80
21171;DHT22;10743;52.160;20.910;2024-03-08T12:58:17;25.50;22.70
21171;DHT22;10743;52.160;20.910;2024-03-08T13:00:44;25.60;22.50
21171;DHT22;10743;52.160;20.910;2024-03-08T13:03:11;25.60;22.40
21171;DHT22;10743;52.160;20.910;2024-03-08T13:05:38;25.60;22.50
21171;DHT22;10743;52.160;20.910;2024-03-08T13:08:10;25.60;22.50
21171;DHT22;10743;52.160;20.910;2024-03-08T13:10:40;25.60;22.60
21171;DHT22;10743;52.160;20.910;2024-03-08T13:13:10;25.60;22.60
21171;DHT22;10743;52.160;20.910;2024-03-08T13:15:40;25.70;22.30
21171;DHT22;10743;52.160;20.910;2024-03-08T13:18:07;25.70;22.70
21171;DHT22;10743;52.160;20.910;2024-03-08T13:20:36;25.70;22.50
21171;DHT22;10743;52.160;20.910;2024-03-08T13:23:13;25.80;22.80
21171;DHT22;10743;52.160;20.910;2024-03-08T13:25:41;25.80;22.80
21171;DHT22;10743;52.160;20.910;2024-03-08T13:28:08;25.80;22.90
21171;DHT22;10743;52.160;20.910;2024-03-08T13:30:35;25.70;23.10
21171;DHT22;10743;52.160;20.910;2024-03-08T13:33:03;25.60;23.00
21171;DHT22;10743;52.160;20.910;2024-03-08T13:35:32;25.60;23.10
21171;DHT22;10743;52.160;20.910;2024-03-08T13:37:59;25.60;23.20
21171;DHT22;10743;52.160;20.910;2024-03-08T13:40:28;25.60;23.00
21171;DHT22;10743;52.160;20.910;2024-03-08T13:42:55;25.60;22.90
21171;DHT22;10743;52.160;20.910;2024-03-08T13:45:23;25.60;22.90
21171;DHT22;10743;52.160;20.910;2024-03-08T13:47:51;25.60;22.80
21171;DHT22;10743;52.160;20.910;2024-03-08T13:50:21;25.60;23.00
21171;DHT22;10743;52.160;20.910;2024-03-08T13:52:49;25.60;23.00
21171;DHT22;10743;52.160;20.910;2024-03-08T13:55:23;25.50;22.80
21171;DHT22;10743;52.160;20.910;2024-03-08T13:57:54;25.50;23.10
21171;DHT22;10743;52.160;20.910;2024-03-08T14:00:21;25.50;22.70
21171;DHT22;10743;52.160;20.910;2024-03-08T14:02:50;25.60;22.40
21171;DHT22;10743;52.160;20.910;2024-03-08T14:05:17;25.60;22.50
21171;DHT22;10743;52.160;20.910;2024-03-08T14:07:46;25.60;22.40
21171;DHT22;10743;52.160;20.910;2024-03-08T14:10:16;25.50;22.60
21171;DHT22;10743;52.160;20.910;2024-03-08T14:12:47;25.50;22.30
21171;DHT22;10743;52.160;20.910;2024-03-08T14:15:17;25.50;22.30
21171;DHT22;10743;52.160;20.910;2024-03-08T14:17:45;25.60;22.10
21171;DHT22;10743;52.160;20.910;2024-03-08T14:20:14;25.60;22.30
21171;DHT22;10743;52.160;20.910;2024-03-08T14:22:41;25.60;22.10
21171;DHT22;10743;52.160;20.910;2024-03-08T14:25:08;25.60;22.30
21171;DHT22;10743;52.160;20.910;2024-03-08T14:27:45;25.60;22.40
21171;DHT22;10743;52.160;20.910;2024-03-08T14:30:13;25.70;22.60
21171;DHT22;10743;52.160;20.910;2024-03-08T14:32:40;25.40;23.40
21171;DHT22;10743;52.160;20.910;2024-03-08T14:35:08;25.30;23.00
21171;DHT22;10743;52.160;20.910;2024-03-08T14:37:38;25.30;22.80
21171;DHT22;10743;52.160;20.910;2024-03-08T14:40:06;25.30;22.70
21171;DHT22;10743;52.160;20.910;2024-03-08T14:42:35;25.20;22.80
21171;DHT22;10743;52.160;20.910;2024-03-08T14:45:03;25.20;22.70
21171;DHT22;10743;52.160;20.910;2024-03-08T14:47:30;25.20;22.50
21171;DHT22;10743;52.160;20.910;2024-03-08T14:49:57;25.20;22.80
21171;DHT22;10743;52.160;20.910;2024-03-08T14:52:24;25.20;22.70
21171;DHT22;10743;52.160;20.910;2024-03-08T14:54:57;25.10;22.60
21171;DHT22;10743;52.160;20.910;2024-03-08T14:57:25;25.10;22.50
21171;DHT22;10743;52.160;20.910;2024-03-08T14:59:52;25.20;22.30
21171;DHT22;10743;52.160;20.910;2024-03-08T15:02:19;25.10;22.90
21171;DHT22;10743;52.160;20.910;2024-03-08T15:04:47;25.20;22.30
21171;DHT22;10743;52.160;20.910;2024-03-08T15:07:24;25.20;22.40
21171;DHT22;10743;52.160;20.910;2024-03-08T15:09:56;25.20;22.20
21171;DHT22;10743;52.160;20.910;2024-03-08T15:12:23;25.10;22.30
21171;DHT22;10743;52.160;20.910;2024-03-08T15:14:53;25.00;23.00
21171;DHT22;10743;52.160;20.910;2024-03-08T15:17:22;25.00;22.80
21171;DHT22;10743;52.160;20.910;2024-03-08T15:19:51;24.90;23.00
21171;DHT22;10743;52.160;20.910;2024-03-08T15:22:21;24.90;23.00
21171;DHT22;10743;52.160;20.910;2024-03-08T15:24:48;24.80;22.80
21171;DHT22;10743;52.160;20.910;2024-03-08T15:27:14;24.80;23.30
21171;DHT22;10743;52.160;20.910;2024-03-08T15:29:41;24.80;23.40
21171;DHT22;10743;52.160;20.910;2024-03-08T15:32:12;24.70;23.60
21171;DHT22;10743;52.160;20.910;2024-03-08T15:34:48;24.60;23.70
21171;DHT22;10743;52.160;20.910;2024-03-08T15:37:15;24.60;23.80
21171;DHT22;10743;52.160;20.910;2024-03-08T15:39:44;24.50;23.80
21171;DHT22;10743;52.160;20.910;2024-03-08T15:42:11;24.50;23.80
21171;DHT22;10743;52.160;20.910;2024-03-08T15:44:39;24.50;23.70
21171;DHT22;10743;52.160;20.910;2024-03-08T15:47:08;24.40;23.80
21171;DHT22;10743;52.160;20.910;2024-03-08T15:49:37;24.40;24.20
21171;DHT22;10743;52.160;20.910;2024-03-08T15:52:04;24.40;24.10
21171;DHT22;10743;52.160;20.910;2024-03-08T15:54:33;24.40;24.40
21171;DHT22;10743;52.160;20.910;2024-03-08T15:57:00;24.30;24.30